sensor_id;sensor_type;location;lat;lon;timestamp;temperature;humidity
7936;DHT22;4013;49.744;8.118;2023-07-31T00:01:56;19.40;99.90
7936;DHT22;4013;49.744;8.118;2023-07-31T00:04:23;19.40;99.90
7936;DHT22;4013;49.744;8.118;2023-07-31T00:06:50;19.40;99.90
7936;DHT22;4013;49.744;8.118;2023-07-31T00:09:17;19.40;99.90
7936;DHT22;4013;49.744;8.118;2023-07-31T00:11:45;19.40;99.90
7936;DHT22;4013;49.744;8.118;2023-07-31T00:14:12;19.40;99.90
7936;DHT22;4013;49.744;8.118;2023-07-31T00:16:39;19.30;99.90
7936;DHT22;4013;49.744;8.118;2023-07-31T00:19:06;19.30;99.90
7936;DHT22;4013;49.744;8.118;2023-07-31T00:21:33;19.30;99.90
7936;DHT22;4013;49.744;8.118;2023-07-31T00:24:00;19.20;99.90
7936;DHT22;4013;49.744;8.118;2023-07-31T00:26:27;19.20;99.90
7936;DHT22;4013;49.744;8.118;2023-07-31T00:28:55;19.20;99.90
7936;DHT22;4013;49.744;8.118;2023-07-31T00:31:22;19.30;99.90
7936;DHT22;4013;49.744;8.118;2023-07-31T00:33:49;19.30;99.90
7936;DHT22;4013;49.744;8.118;2023-07-31T00:36:16;19.30;99.90
7936;DHT22;4013;49.744;8.118;2023-07-31T00:38:43;19.30;99.90
7936;DHT22;4013;49.744;8.118;2023-07-31T00:41:10;19.30;99.90
7936;DHT22;4013;49.744;8.118;2023-07-31T00:43:37;19.30;99.90
7936;DHT22;4013;49.744;8.118;2023-07-31T00:46:06;19.20;99.90
7936;DHT22;4013;49.744;8.118;2023-07-31T00:48:34;19.20;99.90
7936;DHT22;4013;49.744;8.118;2023-07-31T00:51:01;19.20;99.90
7936;DHT22;4013;49.744;8.118;2023-07-31T00:53:28;19.10;99.90
7936;DHT22;4013;49.744;8.118;2023-07-31T00:55:55;19.20;99.90
7936;DHT22;4013;49.744;8.118;2023-07-31T00:58:22;19.20;99.90
7936;DHT22;4013;49.744;8.118;2023-07-31T01:00:49;19.10;99.90
7936;DHT22;4013;49.744;8.118;2023-07-31T01:03:18;19.20;99.90
7936;DHT22;4013;49.744;8.118;2023-07-31T01:05:52;19.20;99.90
7936;DHT22;4013;49.744;8.118;2023-07-31T01:08:29;19.10;99.90
7936;DHT22;4013;49.744;8.118;2023-07-31T01:11:14;19.10;99.90
7936;DHT22;4013;49.744;8.118;2023-07-31T01:13:42;19.10;99.90
7936;DHT22;4013;49.744;8.118;2023-07-31T01:16:10;19.00;99.90
7936;DHT22;4013;49.744;8.118;2023-07-31T01:18:39;19.00;99.90
7936;DHT22;4013;49.744;8.118;2023-07-31T01:21:21;19.00;99.90
7936;DHT22;4013;49.744;8.118;2023-07-31T01:24:21;19.00;99.90
7936;DHT22;4013;49.744;8.118;2023-07-31T01:26:55;19.00;99.90
7936;DHT22;4013;49.744;8.118;2023-07-31T01:29:28;19.00;99.90
7936;DHT22;4013;49.744;8.118;2023-07-31T01:32:01;19.00;99.90
7936;DHT22;4013;49.744;8.118;2023-07-31T01:34:29;19.00;99.90
7936;DHT22;4013;49.744;8.118;2023-07-31T01:36:56;18.90;99.90
7936;DHT22;4013;49.744;8.118;2023-07-31T01:39:24;18.90;99.90
7936;DHT22;4013;49.744;8.118;2023-07-31T01:41:52;18.90;99.90
7936;DHT22;4013;49.744;8.118;2023-07-31T01:44:19;18.90;99.90
7936;DHT22;4013;49.744;8.118;2023-07-31T01:46:46;18.90;99.90
7936;DHT22;4013;49.744;8.118;2023-07-31T01:49:13;18.90;99.90
7936;DHT22;4013;49.744;8.118;2023-07-31T01:51:40;19.00;99.90
7936;DHT22;4013;49.744;8.118;2023-07-31T01:54:09;18.90;99.90
7936;DHT22;4013;49.744;8.118;2023-07-31T01:56:36;18.90;99.90
7936;DHT22;4013;49.744;8.118;2023-07-31T01:59:05;18.80;99.90
7936;DHT22;4013;49.744;8.118;2023-07-31T02:01:31;18.80;99.90
7936;DHT22;4013;49.744;8.118;2023-07-31T02:03:58;18.90;99.90
7936;DHT22;4013;49.744;8.118;2023-07-31T02:06:25;18.90;99.90
7936;DHT22;4013;49.744;8.118;2023-07-31T02:08:52;18.80;99.90
7936;DHT22;4013;49.744;8.118;2023-07-31T02:11:19;18.90;99.90
7936;DHT22;4013;49.744;8.118;2023-07-31T02:13:46;18.80;99.90
7936;DHT22;4013;49.744;8.118;2023-07-31T02:16:14;18.80;99.90
7936;DHT22;4013;49.744;8.118;2023-07-31T02:18:41;18.80;99.90
7936;DHT22;4013;49.744;8.118;2023-07-31T02:21:08;18.80;99.90
7936;DHT22;4013;49.744;8.118;2023-07-31T02:23:35;18.80;99.90
7936;DHT22;4013;49.744;8.118;2023-07-31T02:26:02;18.70;99.90
7936;DHT22;4013;49.744;8.118;2023-07-31T02:28:29;18.70;99.90
7936;DHT22;4013;49.744;8.118;2023-07-31T02:30:56;18.70;99.90
7936;DHT22;4013;49.744;8.118;2023-07-31T02:33:25;18.60;99.90
7936;DHT22;4013;49.744;8.118;2023-07-31T02:35:51;18.60;99.90
7936;DHT22;4013;49.744;8.118;2023-07-31T02:38:18;18.60;99.90
7936;DHT22;4013;49.744;8.118;2023-07-31T02:40:45;18.60;99.90
7936;DHT22;4013;49.744;8.118;2023-07-31T02:43:13;18.60;99.90
7936;DHT22;4013;49.744;8.118;2023-07-31T02:45:40;18.60;99.90
7936;DHT22;4013;49.744;8.118;2023-07-31T02:48:07;18.70;99.90
7936;DHT22;4013;49.744;8.118;2023-07-31T02:50:35;18.70;99.90
7936;DHT22;4013;49.744;8.118;2023-07-31T02:53:02;18.70;99.90
7936;DHT22;4013;49.744;8.118;2023-07-31T02:55:29;18.70;99.90
7936;DHT22;4013;49.744;8.118;2023-07-31T02:57:56;18.70;99.90
7936;DHT22;4013;49.744;8.118;2023-07-31T03:00:24;18.60;99.90
7936;DHT22;4013;49.744;8.118;2023-07-31T03:02:51;18.50;99.90
7936;DHT22;4013;49.744;8.118;2023-07-31T03:05:18;18.40;99.90
7936;DHT22;4013;49.744;8.118;2023-07-31T03:07:46;18.20;99.90
7936;DHT22;4013;49.744;8.118;2023-07-31T03:10:13;18.10;99.90
7936;DHT22;4013;49.744;8.118;2023-07-31T03:12:40;18.00;99.90
7936;DHT22;4013;49.744;8.118;2023-07-31T03:15:08;17.90;99.90
7936;DHT22;4013;49.744;8.118;2023-07-31T03:17:35;17.90;99.90
7936;DHT22;4013;49.744;8.118;2023-07-31T03:20:03;17.90;99.90
7936;DHT22;4013;49.744;8.118;2023-07-31T03:22:31;18.00;99.90
7936;DHT22;4013;49.744;8.118;2023-07-31T03:24:59;17.90;99.90
7936;DHT22;4013;49.744;8.118;2023-07-31T03:27:26;17.90;99.90
7936;DHT22;4013;49.744;8.118;2023-07-31T03:29:53;17.90;99.90
7936;DHT22;4013;49.744;8.118;2023-07-31T03:32:20;17.90;99.90
7936;DHT22;4013;49.744;8.118;2023-07-31T03:34:47;17.90;99.90
7936;DHT22;4013;49.744;8.118;2023-07-31T03:37:14;17.90;99.90
7936;DHT22;4013;49.744;8.118;2023-07-31T03:39:41;17.90;99.90
7936;DHT22;4013;49.744;8.118;2023-07-31T03:42:09;17.90;99.90
7936;DHT22;4013;49.744;8.118;2023-07-31T03:44:36;17.90;99.90
7936;DHT22;4013;49.744;8.118;2023-07-31T03:47:03;17.90;99.90
7936;DHT22;4013;49.744;8.118;2023-07-31T03:49:30;17.80;99.90
7936;DHT22;4013;49.744;8.118;2023-07-31T03:51:57;17.80;99.90
7936;DHT22;4013;49.744;8.118;2023-07-31T03:54:24;17.80;99.90
7936;DHT22;4013;49.744;8.118;2023-07-31T03:56:51;17.80;99.90
7936;DHT22;4013;49.744;8.118;2023-07-31T03:59:19;17.70;99.90
7936;DHT22;4013;49.744;8.118;2023-07-31T04:01:46;17.60;99.90
7936;DHT22;4013;49.744;8.118;2023-07-31T04:04:13;17.60;99.90
7936;DHT22;4013;49.744;8.118;2023-07-31T04:06:40;17.60;99.90
7936;DHT22;4013;49.744;8.118;2023-07-31T04:09:07;17.60;99.90
7936;DHT22;4013;49.744;8.118;2023-07-31T04:11:34;17.70;99.90
7936;DHT22;4013;49.744;8.118;2023-07-31T04:14:01;17.70;99.90
7936;DHT22;4013;49.744;8.118;2023-07-31T04:16:29;17.70;99.90
7936;DHT22;4013;49.744;8.118;2023-07-31T04:18:56;17.70;99.90
7936;DHT22;4013;49.744;8.118;2023-07-31T04:21:23;17.70;99.90
7936;DHT22;4013;49.744;8.118;2023-07-31T04:23:50;17.70;99.90
7936;DHT22;4013;49.744;8.118;2023-07-31T04:26:21;17.70;99.90
7936;DHT22;4013;49.744;8.118;2023-07-31T04:28:48;17.70;99.90
7936;DHT22;4013;49.744;8.118;2023-07-31T04:31:15;17.70;99.90
7936;DHT22;4013;49.744;8.118;2023-07-31T04:33:43;17.70;99.90
7936;DHT22;4013;49.744;8.118;2023-07-31T04:36:10;17.70;99.90
7936;DHT22;4013;49.744;8.118;2023-07-31T04:38:37;17.70;99.90
7936;DHT22;4013;49.744;8.118;2023-07-31T04:41:04;17.70;99.90
7936;DHT22;4013;49.744;8.118;2023-07-31T04:43:31;17.60;99.90
7936;DHT22;4013;49.744;8.118;2023-07-31T04:45:58;17.60;99.90
7936;DHT22;4013;49.744;8.118;2023-07-31T04:48:25;17.60;99.90
7936;DHT22;4013;49.744;8.118;2023-07-31T04:50:53;17.60;99.90
7936;DHT22;4013;49.744;8.118;2023-07-31T04:53:20;17.60;99.90
7936;DHT22;4013;49.744;8.118;2023-07-31T04:55:47;17.60;99.90
7936;DHT22;4013;49.744;8.118;2023-07-31T04:58:14;17.60;99.90
7936;DHT22;4013;49.744;8.118;2023-07-31T05:00:41;17.60;99.90
7936;DHT22;4013;49.744;8.118;2023-07-31T05:03:08;17.60;99.90
7936;DHT22;4013;49.744;8.118;2023-07-31T05:05:36;17.60;99.90
7936;DHT22;4013;49.744;8.118;2023-07-31T05:08:04;17.60;99.90
7936;DHT22;4013;49.744;8.118;2023-07-31T05:10:31;17.70;99.90
7936;DHT22;4013;49.744;8.118;2023-07-31T05:12:58;17.70;99.90
7936;DHT22;4013;49.744;8.118;2023-07-31T05:15:25;17.60;99.90
7936;DHT22;4013;49.744;8.118;2023-07-31T05:17:52;17.60;99.90
7936;DHT22;4013;49.744;8.118;2023-07-31T05:20:19;17.60;99.90
7936;DHT22;4013;49.744;8.118;2023-07-31T05:22:46;17.60;99.90
7936;DHT22;4013;49.744;8.118;2023-07-31T05:25:14;17.60;99.90
7936;DHT22;4013;49.744;8.118;2023-07-31T05:27:41;17.70;99.90
7936;DHT22;4013;49.744;8.118;2023-07-31T05:30:09;17.70;99.90
7936;DHT22;4013;49.744;8.118;2023-07-31T05:32:36;17.80;99.90
7936;DHT22;4013;49.744;8.118;2023-07-31T05:35:03;17.70;99.90
7936;DHT22;4013;49.744;8.118;2023-07-31T05:37:30;17.80;99.90
7936;DHT22;4013;49.744;8.118;2023-07-31T05:39:57;17.80;99.90
7936;DHT22;4013;49.744;8.118;2023-07-31T05:42:25;17.80;99.90
7936;DHT22;4013;49.744;8.118;2023-07-31T05:44:52;17.90;99.90
7936;DHT22;4013;49.744;8.118;2023-07-31T05:47:19;17.90;99.90
7936;DHT22;4013;49.744;8.118;2023-07-31T05:49:46;18.00;99.90
7936;DHT22;4013;49.744;8.118;2023-07-31T05:52:13;18.10;99.90
7936;DHT22;4013;49.744;8.118;2023-07-31T05:54:41;18.20;99.90
7936;DHT22;4013;49.744;8.118;2023-07-31T05:57:08;18.10;99.90
7936;DHT22;4013;49.744;8.118;2023-07-31T05:59:36;18.20;99.90
7936;DHT22;4013;49.744;8.118;2023-07-31T06:02:04;18.20;99.90
7936;DHT22;4013;49.744;8.118;2023-07-31T06:04:31;18.20;99.90
7936;DHT22;4013;49.744;8.118;2023-07-31T06:06:58;18.20;99.90
7936;DHT22;4013;49.744;8.118;2023-07-31T06:09:24;18.20;99.90
7936;DHT22;4013;49.744;8.118;2023-07-31T06:11:52;18.20;99.90
7936;DHT22;4013;49.744;8.118;2023-07-31T06:14:19;18.30;99.90
7936;DHT22;4013;49.744;8.118;2023-07-31T06:16:47;18.40;99.90
7936;DHT22;4013;49.744;8.118;2023-07-31T06:19:14;18.40;99.90
7936;DHT22;4013;49.744;8.118;2023-07-31T06:21:41;18.60;99.90
7936;DHT22;4013;49.744;8.118;2023-07-31T06:24:09;18.60;99.90
7936;DHT22;4013;49.744;8.118;2023-07-31T06:26:37;18.70;99.90
7936;DHT22;4013;49.744;8.118;2023-07-31T06:29:04;18.80;99.90
7936;DHT22;4013;49.744;8.118;2023-07-31T06:31:31;18.80;99.90
7936;DHT22;4013;49.744;8.118;2023-07-31T06:34:00;18.90;99.90
7936;DHT22;4013;49.744;8.118;2023-07-31T06:36:27;18.90;99.90
7936;DHT22;4013;49.744;8.118;2023-07-31T06:38:54;19.00;99.90
7936;DHT22;4013;49.744;8.118;2023-07-31T06:41:20;19.10;99.90
7936;DHT22;4013;49.744;8.118;2023-07-31T06:43:47;19.30;99.90
7936;DHT22;4013;49.744;8.118;2023-07-31T06:46:14;19.30;99.90
7936;DHT22;4013;49.744;8.118;2023-07-31T06:48:41;19.40;99.90
7936;DHT22;4013;49.744;8.118;2023-07-31T06:51:10;19.30;99.90
7936;DHT22;4013;49.744;8.118;2023-07-31T06:53:36;19.20;99.90
7936;DHT22;4013;49.744;8.118;2023-07-31T06:56:04;19.10;99.90
7936;DHT22;4013;49.744;8.118;2023-07-31T06:58:31;19.10;99.90
7936;DHT22;4013;49.744;8.118;2023-07-31T07:00:58;19.10;99.90
7936;DHT22;4013;49.744;8.118;2023-07-31T07:03:25;19.10;99.90
7936;DHT22;4013;49.744;8.118;2023-07-31T07:05:52;19.10;99.90
7936;DHT22;4013;49.744;8.118;2023-07-31T07:08:20;19.10;99.90
7936;DHT22;4013;49.744;8.118;2023-07-31T07:10:47;19.30;99.90
7936;DHT22;4013;49.744;8.118;2023-07-31T07:13:14;19.30;99.90
7936;DHT22;4013;49.744;8.118;2023-07-31T07:15:41;19.30;99.90
7936;DHT22;4013;49.744;8.118;2023-07-31T07:18:08;19.30;99.90
7936;DHT22;4013;49.744;8.118;2023-07-31T07:20:36;19.30;99.90
7936;DHT22;4013;49.744;8.118;2023-07-31T07:23:03;19.30;99.90
7936;DHT22;4013;49.744;8.118;2023-07-31T07:25:31;19.30;99.90
7936;DHT22;4013;49.744;8.118;2023-07-31T07:27:58;19.30;99.90
7936;DHT22;4013;49.744;8.118;2023-07-31T07:30:25;19.30;99.90
7936;DHT22;4013;49.744;8.118;2023-07-31T07:32:52;19.40;99.90
7936;DHT22;4013;49.744;8.118;2023-07-31T07:35:19;19.40;99.90
7936;DHT22;4013;49.744;8.118;2023-07-31T07:37:48;19.40;99.90
7936;DHT22;4013;49.744;8.118;2023-07-31T07:40:15;19.40;99.90
7936;DHT22;4013;49.744;8.118;2023-07-31T07:42:44;19.60;99.90
7936;DHT22;4013;49.744;8.118;2023-07-31T07:45:11;19.70;99.90
7936;DHT22;4013;49.744;8.118;2023-07-31T07:47:38;19.70;99.90
7936;DHT22;4013;49.744;8.118;2023-07-31T07:50:06;19.90;99.90
7936;DHT22;4013;49.744;8.118;2023-07-31T07:52:33;20.00;99.90
7936;DHT22;4013;49.744;8.118;2023-07-31T07:55:00;20.10;99.90
7936;DHT22;4013;49.744;8.118;2023-07-31T07:57:27;20.10;99.90
7936;DHT22;4013;49.744;8.118;2023-07-31T07:59:55;20.20;99.90
7936;DHT22;4013;49.744;8.118;2023-07-31T08:02:22;20.40;99.90
7936;DHT22;4013;49.744;8.118;2023-07-31T08:04:49;20.40;99.90
7936;DHT22;4013;49.744;8.118;2023-07-31T08:07:16;20.50;99.90
7936;DHT22;4013;49.744;8.118;2023-07-31T08:09:43;20.40;99.90
7936;DHT22;4013;49.744;8.118;2023-07-31T08:12:10;20.40;99.90
7936;DHT22;4013;49.744;8.118;2023-07-31T08:14:37;20.30;99.90
7936;DHT22;4013;49.744;8.118;2023-07-31T08:17:05;20.30;99.90
7936;DHT22;4013;49.744;8.118;2023-07-31T08:19:32;20.30;99.90
7936;DHT22;4013;49.744;8.118;2023-07-31T08:21:59;20.30;99.90
7936;DHT22;4013;49.744;8.118;2023-07-31T08:24:26;20.20;99.90
7936;DHT22;4013;49.744;8.118;2023-07-31T08:26:53;20.30;99.90
7936;DHT22;4013;49.744;8.118;2023-07-31T08:29:20;20.30;99.90
7936;DHT22;4013;49.744;8.118;2023-07-31T08:31:47;20.30;99.90
7936;DHT22;4013;49.744;8.118;2023-07-31T08:34:15;20.40;99.90
7936;DHT22;4013;49.744;8.118;2023-07-31T08:36:42;20.40;99.90
7936;DHT22;4013;49.744;8.118;2023-07-31T08:39:10;20.40;99.90
7936;DHT22;4013;49.744;8.118;2023-07-31T08:41:38;20.40;99.90
7936;DHT22;4013;49.744;8.118;2023-07-31T08:44:06;20.30;99.90
7936;DHT22;4013;49.744;8.118;2023-07-31T08:46:34;20.40;99.90
7936;DHT22;4013;49.744;8.118;2023-07-31T08:49:03;20.40;99.90
7936;DHT22;4013;49.744;8.118;2023-07-31T08:51:33;20.50;99.90
7936;DHT22;4013;49.744;8.118;2023-07-31T08:54:00;20.50;99.90
7936;DHT22;4013;49.744;8.118;2023-07-31T08:56:29;20.50;99.90
7936;DHT22;4013;49.744;8.118;2023-07-31T08:58:58;20.50;99.90
7936;DHT22;4013;49.744;8.118;2023-07-31T09:01:29;20.60;99.90
7936;DHT22;4013;49.744;8.118;2023-07-31T09:03:58;20.60;99.90
7936;DHT22;4013;49.744;8.118;2023-07-31T09:06:28;20.70;99.90
7936;DHT22;4013;49.744;8.118;2023-07-31T09:08:58;20.80;99.90
7936;DHT22;4013;49.744;8.118;2023-07-31T09:11:25;20.90;99.90
7936;DHT22;4013;49.744;8.118;2023-07-31T09:13:56;20.90;99.90
7936;DHT22;4013;49.744;8.118;2023-07-31T09:16:27;21.00;99.90
7936;DHT22;4013;49.744;8.118;2023-07-31T09:18:56;21.10;99.90
7936;DHT22;4013;49.744;8.118;2023-07-31T09:21:24;21.20;99.90
7936;DHT22;4013;49.744;8.118;2023-07-31T09:23:53;21.10;99.90
7936;DHT22;4013;49.744;8.118;2023-07-31T09:26:32;21.10;99.90
7936;DHT22;4013;49.744;8.118;2023-07-31T09:29:00;21.00;99.90
7936;DHT22;4013;49.744;8.118;2023-07-31T09:31:38;21.10;99.90
7936;DHT22;4013;49.744;8.118;2023-07-31T09:34:06;21.00;99.90
7936;DHT22;4013;49.744;8.118;2023-07-31T09:36:33;21.10;99.90
7936;DHT22;4013;49.744;8.118;2023-07-31T09:39:09;21.20;99.90
7936;DHT22;4013;49.744;8.118;2023-07-31T09:41:38;21.20;99.90
7936;DHT22;4013;49.744;8.118;2023-07-31T09:44:05;21.20;99.90
7936;DHT22;4013;49.744;8.118;2023-07-31T09:46:34;21.30;99.90
7936;DHT22;4013;49.744;8.118;2023-07-31T09:49:09;21.30;99.90
7936;DHT22;4013;49.744;8.118;2023-07-31T09:51:36;21.40;99.90
7936;DHT22;4013;49.744;8.118;2023-07-31T09:54:09;21.40;99.90
7936;DHT22;4013;49.744;8.118;2023-07-31T09:56:42;21.30;99.90
7936;DHT22;4013;49.744;8.118;2023-07-31T09:59:11;21.30;99.90
7936;DHT22;4013;49.744;8.118;2023-07-31T10:01:40;21.30;99.90
7936;DHT22;4013;49.744;8.118;2023-07-31T10:04:08;21.30;99.90
7936;DHT22;4013;49.744;8.118;2023-07-31T10:06:35;21.30;99.90
7936;DHT22;4013;49.744;8.118;2023-07-31T10:09:06;21.20;99.90
7936;DHT22;4013;49.744;8.118;2023-07-31T10:11:41;21.20;99.90
7936;DHT22;4013;49.744;8.118;2023-07-31T10:14:10;21.20;99.90
7936;DHT22;4013;49.744;8.118;2023-07-31T10:16:38;21.20;99.90
7936;DHT22;4013;49.744;8.118;2023-07-31T10:19:06;21.20;99.90
7936;DHT22;4013;49.744;8.118;2023-07-31T10:21:34;21.20;99.90
7936;DHT22;4013;49.744;8.118;2023-07-31T10:24:04;21.30;99.90
7936;DHT22;4013;49.744;8.118;2023-07-31T10:26:32;21.50;99.90
7936;DHT22;4013;49.744;8.118;2023-07-31T10:29:00;21.60;99.90
7936;DHT22;4013;49.744;8.118;2023-07-31T10:31:28;21.60;99.90
7936;DHT22;4013;49.744;8.118;2023-07-31T10:33:56;21.60;99.90
7936;DHT22;4013;49.744;8.118;2023-07-31T10:36:23;21.60;99.90
7936;DHT22;4013;49.744;8.118;2023-07-31T10:38:51;21.60;99.90
7936;DHT22;4013;49.744;8.118;2023-07-31T10:41:18;21.60;99.90
7936;DHT22;4013;49.744;8.118;2023-07-31T10:43:46;21.50;99.90
7936;DHT22;4013;49.744;8.118;2023-07-31T10:46:14;21.50;99.90
7936;DHT22;4013;49.744;8.118;2023-07-31T10:48:42;21.50;99.90
7936;DHT22;4013;49.744;8.118;2023-07-31T10:51:10;21.40;99.90
7936;DHT22;4013;49.744;8.118;2023-07-31T10:53:38;21.40;99.90
7936;DHT22;4013;49.744;8.118;2023-07-31T10:56:06;21.40;99.90
7936;DHT22;4013;49.744;8.118;2023-07-31T10:58:33;21.40;99.90
7936;DHT22;4013;49.744;8.118;2023-07-31T11:01:02;21.40;99.90
7936;DHT22;4013;49.744;8.118;2023-07-31T11:03:43;21.50;99.90
7936;DHT22;4013;49.744;8.118;2023-07-31T11:06:10;21.60;99.90
7936;DHT22;4013;49.744;8.118;2023-07-31T11:08:42;21.70;99.90
7936;DHT22;4013;49.744;8.118;2023-07-31T11:11:11;21.80;99.90
7936;DHT22;4013;49.744;8.118;2023-07-31T11:13:43;21.90;99.90
7936;DHT22;4013;49.744;8.118;2023-07-31T11:16:12;21.90;99.90
7936;DHT22;4013;49.744;8.118;2023-07-31T11:18:40;21.90;99.90
7936;DHT22;4013;49.744;8.118;2023-07-31T11:21:12;21.90;99.90
7936;DHT22;4013;49.744;8.118;2023-07-31T11:23:39;21.90;99.90
7936;DHT22;4013;49.744;8.118;2023-07-31T11:26:07;21.90;99.90
7936;DHT22;4013;49.744;8.118;2023-07-31T11:28:35;21.90;99.90
7936;DHT22;4013;49.744;8.118;2023-07-31T11:31:02;22.00;99.90
7936;DHT22;4013;49.744;8.118;2023-07-31T11:33:30;22.20;99.90
7936;DHT22;4013;49.744;8.118;2023-07-31T11:35:57;22.30;99.90
7936;DHT22;4013;49.744;8.118;2023-07-31T11:38:26;22.40;99.90
7936;DHT22;4013;49.744;8.118;2023-07-31T11:40:55;22.50;99.90
7936;DHT22;4013;49.744;8.118;2023-07-31T11:43:22;22.70;99.90
7936;DHT22;4013;49.744;8.118;2023-07-31T11:45:51;22.80;99.90
7936;DHT22;4013;49.744;8.118;2023-07-31T11:48:19;22.80;99.90
7936;DHT22;4013;49.744;8.118;2023-07-31T11:50:48;22.80;99.90
7936;DHT22;4013;49.744;8.118;2023-07-31T11:53:18;22.80;99.90
7936;DHT22;4013;49.744;8.118;2023-07-31T11:55:47;22.60;99.90
7936;DHT22;4013;49.744;8.118;2023-07-31T11:58:15;22.50;99.90
7936;DHT22;4013;49.744;8.118;2023-07-31T12:00:43;22.50;99.90
7936;DHT22;4013;49.744;8.118;2023-07-31T12:03:10;22.60;99.90
7936;DHT22;4013;49.744;8.118;2023-07-31T12:05:37;22.60;99.90
7936;DHT22;4013;49.744;8.118;2023-07-31T12:08:09;22.60;99.90
7936;DHT22;4013;49.744;8.118;2023-07-31T12:10:37;22.60;99.90
7936;DHT22;4013;49.744;8.118;2023-07-31T12:13:08;22.60;99.90
7936;DHT22;4013;49.744;8.118;2023-07-31T12:15:40;22.60;99.90
7936;DHT22;4013;49.744;8.118;2023-07-31T12:18:09;22.50;99.90
7936;DHT22;4013;49.744;8.118;2023-07-31T12:20:41;22.60;99.90
7936;DHT22;4013;49.744;8.118;2023-07-31T12:23:14;22.60;99.90
7936;DHT22;4013;49.744;8.118;2023-07-31T12:25:41;22.60;99.90
7936;DHT22;4013;49.744;8.118;2023-07-31T12:28:10;22.70;99.90
7936;DHT22;4013;49.744;8.118;2023-07-31T12:30:41;22.80;99.90
7936;DHT22;4013;49.744;8.118;2023-07-31T12:33:13;22.90;99.90
7936;DHT22;4013;49.744;8.118;2023-07-31T12:35:43;23.00;99.90
7936;DHT22;4013;49.744;8.118;2023-07-31T12:38:11;23.00;99.90
7936;DHT22;4013;49.744;8.118;2023-07-31T12:40:39;23.00;99.90
7936;DHT22;4013;49.744;8.118;2023-07-31T12:43:07;23.10;99.90
7936;DHT22;4013;49.744;8.118;2023-07-31T12:45:35;23.10;99.90
7936;DHT22;4013;49.744;8.118;2023-07-31T12:48:03;23.10;99.90
7936;DHT22;4013;49.744;8.118;2023-07-31T12:50:30;23.10;99.90
7936;DHT22;4013;49.744;8.118;2023-07-31T12:52:57;23.00;99.90
7936;DHT22;4013;49.744;8.118;2023-07-31T12:55:24;23.10;99.90
7936;DHT22;4013;49.744;8.118;2023-07-31T12:57:51;23.00;99.90
7936;DHT22;4013;49.744;8.118;2023-07-31T13:00:18;23.10;99.90
7936;DHT22;4013;49.744;8.118;2023-07-31T13:02:47;23.00;99.90
7936;DHT22;4013;49.744;8.118;2023-07-31T13:05:14;22.90;99.90
7936;DHT22;4013;49.744;8.118;2023-07-31T13:07:41;22.80;99.90
7936;DHT22;4013;49.744;8.118;2023-07-31T13:10:09;22.60;99.90
7936;DHT22;4013;49.744;8.118;2023-07-31T13:12:36;22.60;99.90
7936;DHT22;4013;49.744;8.118;2023-07-31T13:15:04;22.50;99.90
7936;DHT22;4013;49.744;8.118;2023-07-31T13:17:31;22.50;99.90
7936;DHT22;4013;49.744;8.118;2023-07-31T13:19:59;22.40;99.90
7936;DHT22;4013;49.744;8.118;2023-07-31T13:22:26;22.40;99.90
7936;DHT22;4013;49.744;8.118;2023-07-31T13:24:53;22.30;99.90
7936;DHT22;4013;49.744;8.118;2023-07-31T13:27:20;22.30;99.90
7936;DHT22;4013;49.744;8.118;2023-07-31T13:29:48;22.30;99.90
7936;DHT22;4013;49.744;8.118;2023-07-31T13:32:16;22.30;99.90
7936;DHT22;4013;49.744;8.118;2023-07-31T13:34:43;22.30;99.90
7936;DHT22;4013;49.744;8.118;2023-07-31T13:37:11;22.20;99.90
7936;DHT22;4013;49.744;8.118;2023-07-31T13:39:39;22.20;99.90
7936;DHT22;4013;49.744;8.118;2023-07-31T13:42:06;22.20;99.90
7936;DHT22;4013;49.744;8.118;2023-07-31T13:44:34;22.20;99.90
7936;DHT22;4013;49.744;8.118;2023-07-31T13:47:01;22.10;99.90
7936;DHT22;4013;49.744;8.118;2023-07-31T13:49:29;22.10;99.90
7936;DHT22;4013;49.744;8.118;2023-07-31T13:51:56;22.10;99.90
7936;DHT22;4013;49.744;8.118;2023-07-31T13:54:25;22.10;99.90
7936;DHT22;4013;49.744;8.118;2023-07-31T13:56:52;22.20;99.90
7936;DHT22;4013;49.744;8.118;2023-07-31T13:59:20;22.10;99.90
7936;DHT22;4013;49.744;8.118;2023-07-31T14:01:47;22.00;99.90
7936;DHT22;4013;49.744;8.118;2023-07-31T14:04:14;22.10;99.90
7936;DHT22;4013;49.744;8.118;2023-07-31T14:06:41;22.10;99.90
7936;DHT22;4013;49.744;8.118;2023-07-31T14:09:07;22.10;99.90
7936;DHT22;4013;49.744;8.118;2023-07-31T14:11:35;22.00;99.90
7936;DHT22;4013;49.744;8.118;2023-07-31T14:14:03;22.00;99.90
7936;DHT22;4013;49.744;8.118;2023-07-31T14:16:30;22.00;99.90
7936;DHT22;4013;49.744;8.118;2023-07-31T14:18:57;22.00;99.90
7936;DHT22;4013;49.744;8.118;2023-07-31T14:21:24;22.00;99.90
7936;DHT22;4013;49.744;8.118;2023-07-31T14:23:51;22.00;99.90
7936;DHT22;4013;49.744;8.118;2023-07-31T14:26:18;22.00;99.90
7936;DHT22;4013;49.744;8.118;2023-07-31T14:28:47;21.90;99.90
7936;DHT22;4013;49.744;8.118;2023-07-31T14:31:14;21.90;99.90
7936;DHT22;4013;49.744;8.118;2023-07-31T14:33:41;21.90;99.90
7936;DHT22;4013;49.744;8.118;2023-07-31T14:36:08;21.90;99.90
7936;DHT22;4013;49.744;8.118;2023-07-31T14:38:35;21.90;99.90
7936;DHT22;4013;49.744;8.118;2023-07-31T14:41:02;21.80;99.90
7936;DHT22;4013;49.744;8.118;2023-07-31T14:43:29;21.90;99.90
7936;DHT22;4013;49.744;8.118;2023-07-31T14:45:57;21.80;99.90
7936;DHT22;4013;49.744;8.118;2023-07-31T14:48:24;21.90;99.90
7936;DHT22;4013;49.744;8.118;2023-07-31T14:50:52;21.90;99.90
7936;DHT22;4013;49.744;8.118;2023-07-31T14:53:18;21.80;99.90
7936;DHT22;4013;49.744;8.118;2023-07-31T14:55:45;21.80;99.90
7936;DHT22;4013;49.744;8.118;2023-07-31T14:58:12;21.90;99.90
7936;DHT22;4013;49.744;8.118;2023-07-31T15:00:40;22.00;99.90
7936;DHT22;4013;49.744;8.118;2023-07-31T15:03:08;22.00;99.90
7936;DHT22;4013;49.744;8.118;2023-07-31T15:05:35;22.00;99.90
7936;DHT22;4013;49.744;8.118;2023-07-31T15:08:02;22.00;99.90
7936;DHT22;4013;49.744;8.118;2023-07-31T15:10:29;21.90;99.90
7936;DHT22;4013;49.744;8.118;2023-07-31T15:12:56;21.90;99.90
7936;DHT22;4013;49.744;8.118;2023-07-31T15:15:23;21.90;99.90
7936;DHT22;4013;49.744;8.118;2023-07-31T15:17:50;21.90;99.90
7936;DHT22;4013;49.744;8.118;2023-07-31T15:20:19;21.90;99.90
7936;DHT22;4013;49.744;8.118;2023-07-31T15:22:45;21.90;99.90
7936;DHT22;4013;49.744;8.118;2023-07-31T15:25:13;21.90;99.90
7936;DHT22;4013;49.744;8.118;2023-07-31T15:27:40;22.00;99.90
7936;DHT22;4013;49.744;8.118;2023-07-31T15:30:08;21.90;99.90
7936;DHT22;4013;49.744;8.118;2023-07-31T15:32:37;21.90;99.90
7936;DHT22;4013;49.744;8.118;2023-07-31T15:35:05;21.90;99.90
7936;DHT22;4013;49.744;8.118;2023-07-31T15:37:34;21.80;99.90
7936;DHT22;4013;49.744;8.118;2023-07-31T15:40:01;21.80;99.90
7936;DHT22;4013;49.744;8.118;2023-07-31T15:42:28;21.70;99.90
7936;DHT22;4013;49.744;8.118;2023-07-31T15:44:55;21.60;99.90
7936;DHT22;4013;49.744;8.118;2023-07-31T15:47:22;21.50;99.90
7936;DHT22;4013;49.744;8.118;2023-07-31T15:49:49;21.50;99.90
7936;DHT22;4013;49.744;8.118;2023-07-31T15:52:16;21.50;99.90
7936;DHT22;4013;49.744;8.118;2023-07-31T15:54:45;21.50;99.90
7936;DHT22;4013;49.744;8.118;2023-07-31T15:57:12;21.50;99.90
7936;DHT22;4013;49.744;8.118;2023-07-31T15:59:39;21.40;99.90
7936;DHT22;4013;49.744;8.118;2023-07-31T16:02:07;21.20;99.90
7936;DHT22;4013;49.744;8.118;2023-07-31T16:04:35;21.20;99.90
7936;DHT22;4013;49.744;8.118;2023-07-31T16:07:03;21.20;99.90